Time;durP1;ratioP1;P1;durP2;ratioP2;P2;SDS_P1;SDS_P2;PMS_P1;PMS_P2;Temp;Humidity;BMP_temperature;BMP_pressure;BME280_temperature;BME280_humidity;BME280_pressure;Samples;Min_cycle;Max_cycle;Signal;HPM_P1;HPM_P2
2022/05/04 00:01:29;;;;;;;;;;;12.60;99.90;;;;;;5050884;28;19967;-68
2022/05/04 00:03:56;;;;;;;;;;;12.60;99.90;;;;;;5050005;28;19920;-68
2022/05/04 00:06:23;;;;;;;;;;;12.60;99.90;;;;;;5051271;28;20485;-68
2022/05/04 00:08:50;;;;;;;;;;;12.60;99.90;;;;;;5048894;28;19975;-68
2022/05/04 00:11:17;;;;;;;;;;;12.60;99.90;;;;;;5050874;28;19924;-66
2022/05/04 00:13:43;;;;;;;;;;;12.60;99.90;;;;;;5050282;28;20008;-69
2022/05/04 00:16:10;;;;;;;;;;;12.60;99.90;;;;;;5048307;28;20007;-67
2022/05/04 00:18:37;;;;;;;;;;;12.70;99.90;;;;;;5048848;28;19924;-68
2022/05/04 00:21:06;;;;;;;;;;;12.80;99.90;;;;;;5048172;28;19921;-68
2022/05/04 00:23:35;;;;;;;;;;;12.90;99.90;;;;;;5048468;28;19921;-68
2022/05/04 00:26:02;;;;;;;;;;;12.90;99.90;;;;;;5047386;28;19921;-68
2022/05/04 00:28:29;;;;;;;;;;;13.00;99.90;;;;;;5047707;28;19921;-68
2022/05/04 00:30:55;;;;;;;;;;;13.00;99.90;;;;;;5037836;28;20674;-68
2022/05/04 00:33:22;;;;;;;;;;;12.90;99.90;;;;;;5047995;28;19928;-68
2022/05/04 00:35:49;;;;;;;;;;;12.80;99.90;;;;;;5047666;28;19959;-68
2022/05/04 00:38:15;;;;;;;;;;;12.80;99.90;;;;;;5050436;28;20629;-68
2022/05/04 00:40:42;;;;;;;;;;;12.90;99.90;;;;;;5049209;28;20024;-67
2022/05/04 00:43:19;;;;;;;;;;;12.90;99.90;;;;;;5048072;28;19927;-67
2022/05/04 00:45:46;;;;;;;;;;;12.90;99.90;;;;;;5049973;28;19931;-68
2022/05/04 00:48:15;;;;;;;;;;;12.90;99.90;;;;;;5042682;28;20295;-67
2022/05/04 00:50:43;;;;;;;;;;;12.90;99.90;;;;;;5080389;28;20569;-67
2022/05/04 00:53:10;;;;;;;;;;;12.90;99.90;;;;;;5048460;28;19927;-67
2022/05/04 00:55:38;;;;;;;;;;;12.80;99.90;;;;;;5042108;28;19935;-68
2022/05/04 01:00:51;;;;;;;;;;;12.70;99.90;;;;;;5051039;28;20007;-68
2022/05/04 01:03:18;;;;;;;;;;;12.70;99.90;;;;;;5036156;28;19967;-67
2022/05/04 01:05:47;;;;;;;;;;;12.80;99.90;;;;;;5044051;28;20008;-67
2022/05/04 01:08:14;;;;;;;;;;;12.80;99.90;;;;;;5047697;28;20027;-67
2022/05/04 01:10:44;;;;;;;;;;;12.90;99.90;;;;;;5049946;28;19921;-68
2022/05/04 01:13:10;;;;;;;;;;;12.90;99.90;;;;;;5048698;28;19999;-67
2022/05/04 01:15:39;;;;;;;;;;;12.90;99.90;;;;;;5047188;28;19931;-68
2022/05/04 01:18:06;;;;;;;;;;;12.90;99.90;;;;;;5048335;28;20567;-67
2022/05/04 01:20:33;;;;;;;;;;;12.80;99.90;;;;;;5050046;28;19959;-68
2022/05/04 01:22:59;;;;;;;;;;;12.80;99.90;;;;;;5048104;28;20279;-67
2022/05/04 01:25:26;;;;;;;;;;;12.80;99.90;;;;;;5049664;28;19924;-67
2022/05/04 01:27:53;;;;;;;;;;;12.80;99.90;;;;;;5047873;28;19921;-67
2022/05/04 01:30:22;;;;;;;;;;;12.80;99.90;;;;;;5049237;28;19956;-69
2022/05/04 01:32:49;;;;;;;;;;;12.70;99.90;;;;;;5043382;28;20015;-68
2022/05/04 01:35:16;;;;;;;;;;;12.70;99.90;;;;;;5050007;28;20023;-68
2022/05/04 01:37:42;;;;;;;;;;;12.60;99.90;;;;;;5045546;28;19930;-69
2022/05/04 01:40:09;;;;;;;;;;;12.60;99.90;;;;;;5050335;28;19921;-68
2022/05/04 01:42:36;;;;;;;;;;;12.50;99.90;;;;;;5048921;28;20015;-68
2022/05/04 01:45:05;;;;;;;;;;;12.50;99.90;;;;;;5045089;28;19920;-68
2022/05/04 01:47:35;;;;;;;;;;;12.40;99.90;;;;;;5045003;28;20458;-68
2022/05/04 01:50:02;;;;;;;;;;;12.30;99.90;;;;;;5045216;28;19921;-68
2022/05/04 01:52:32;;;;;;;;;;;12.30;99.90;;;;;;5050509;28;19956;-68
2022/05/04 01:55:00;;;;;;;;;;;12.20;99.90;;;;;;5053350;28;19927;-68
2022/05/04 01:57:27;;;;;;;;;;;12.10;99.90;;;;;;5053938;28;19920;-68
2022/05/04 01:59:54;;;;;;;;;;;12.00;99.90;;;;;;5053656;28;19920;-68
2022/05/04 02:02:21;;;;;;;;;;;11.90;99.90;;;;;;5052735;28;19944;-68
2022/05/04 02:04:50;;;;;;;;;;;11.70;99.90;;;;;;5054337;28;19929;-68
2022/05/04 02:07:17;;;;;;;;;;;11.60;99.90;;;;;;5051844;28;19920;-68
2022/05/04 02:09:44;;;;;;;;;;;11.50;99.90;;;;;;5053111;28;19996;-68
2022/05/04 02:12:11;;;;;;;;;;;11.30;99.90;;;;;;5052805;28;20294;-67
2022/05/04 02:14:38;;;;;;;;;;;11.20;99.90;;;;;;5052750;28;20011;-68
2022/05/04 02:17:05;;;;;;;;;;;11.10;99.90;;;;;;5048761;28;19925;-68
2022/05/04 02:19:32;;;;;;;;;;;11.00;99.90;;;;;;5052813;28;19928;-68
2022/05/04 02:21:59;;;;;;;;;;;10.90;99.90;;;;;;5050495;28;19955;-68
2022/05/04 02:24:26;;;;;;;;;;;10.90;99.90;;;;;;5049505;28;19971;-69
2022/05/04 02:26:52;;;;;;;;;;;10.80;99.90;;;;;;5053016;28;19927;-68
2022/05/04 02:29:19;;;;;;;;;;;10.80;99.90;;;;;;5051478;28;20007;-69
2022/05/04 02:31:46;;;;;;;;;;;10.80;99.90;;;;;;5051626;28;20008;-69
2022/05/04 02:34:13;;;;;;;;;;;10.80;99.90;;;;;;5051656;28;19921;-69
2022/05/04 02:39:24;;;;;;;;;;;10.90;99.90;;;;;;5051067;28;19929;-68
2022/05/04 02:41:52;;;;;;;;;;;10.90;99.90;;;;;;5052880;28;20409;-67
2022/05/04 02:44:19;;;;;;;;;;;11.00;99.90;;;;;;5045633;28;20310;-68
2022/05/04 02:46:49;;;;;;;;;;;11.00;99.90;;;;;;5051384;28;20351;-67
2022/05/04 02:49:16;;;;;;;;;;;11.00;99.90;;;;;;5045409;28;19956;-67
2022/05/04 02:51:43;;;;;;;;;;;11.00;99.90;;;;;;5052974;28;19999;-67
2022/05/04 02:54:10;;;;;;;;;;;11.00;99.90;;;;;;5048924;28;19924;-67
2022/05/04 02:56:37;;;;;;;;;;;11.10;99.90;;;;;;5052278;28;19963;-68
2022/05/04 02:59:03;;;;;;;;;;;11.10;99.90;;;;;;5046340;28;19999;-68
2022/05/04 03:04:15;;;;;;;;;;;11.10;99.90;;;;;;5048426;28;19974;-68
2022/05/04 03:06:42;;;;;;;;;;;11.00;99.90;;;;;;5049874;28;20007;-67
2022/05/04 03:09:10;;;;;;;;;;;10.90;99.90;;;;;;5050130;28;19924;-67
2022/05/04 03:11:55;;;;;;;;;;;10.90;99.90;;;;;;5050761;28;19920;-68
2022/05/04 03:14:25;;;;;;;;;;;10.80;99.90;;;;;;5080356;28;19920;-67
2022/05/04 03:16:52;;;;;;;;;;;10.70;99.90;;;;;;5048236;28;19920;-68
2022/05/04 03:19:19;;;;;;;;;;;10.70;99.90;;;;;;5049591;28;19971;-68
2022/05/04 03:21:47;;;;;;;;;;;10.60;99.90;;;;;;5049454;28;20429;-67
2022/05/04 03:24:13;;;;;;;;;;;10.50;99.90;;;;;;5052662;28;20530;-68
2022/05/04 03:26:40;;;;;;;;;;;10.40;99.90;;;;;;5051773;28;19927;-68
2022/05/04 03:29:07;;;;;;;;;;;10.30;99.90;;;;;;5051336;28;19927;-67
2022/05/04 03:31:34;;;;;;;;;;;10.20;99.90;;;;;;5051565;28;19967;-68
2022/05/04 03:34:01;;;;;;;;;;;10.10;99.90;;;;;;5052154;28;19920;-67
2022/05/04 03:36:28;;;;;;;;;;;9.90;99.90;;;;;;5040995;28;19921;-69
2022/05/04 03:38:55;;;;;;;;;;;9.80;99.90;;;;;;5050827;28;19927;-68
2022/05/04 03:41:24;;;;;;;;;;;9.60;99.90;;;;;;5050925;28;20375;-68
2022/05/04 03:43:51;;;;;;;;;;;9.40;99.90;;;;;;5049802;28;19931;-67
2022/05/04 03:46:24;;;;;;;;;;;9.30;99.90;;;;;;5049502;28;20003;-68
2022/05/04 03:48:53;;;;;;;;;;;9.30;99.90;;;;;;5051437;28;19950;-67
2022/05/04 03:51:20;;;;;;;;;;;9.20;99.90;;;;;;5085435;28;20003;-67
2022/05/04 03:53:50;;;;;;;;;;;9.10;99.90;;;;;;5046579;28;20383;-67
2022/05/04 03:56:17;;;;;;;;;;;9.10;99.90;;;;;;5048444;28;19932;-69
2022/05/04 03:58:46;;;;;;;;;;;9.10;99.90;;;;;;5049456;28;19932;-68
2022/05/04 04:01:13;;;;;;;;;;;9.10;99.90;;;;;;5050062;28;19921;-68
2022/05/04 04:03:40;;;;;;;;;;;9.10;99.90;;;;;;5052690;28;19963;-68
2022/05/04 04:06:07;;;;;;;;;;;9.10;99.90;;;;;;5059206;28;19928;-69
2022/05/04 04:08:34;;;;;;;;;;;9.10;99.90;;;;;;5053842;28;20341;-68
2022/05/04 04:11:01;;;;;;;;;;;9.10;99.90;;;;;;5050486;28;20387;-68
2022/05/04 04:13:27;;;;;;;;;;;9.10;99.90;;;;;;5050349;28;19921;-68
2022/05/04 04:15:54;;;;;;;;;;;9.10;99.90;;;;;;5051564;28;20011;-68
2022/05/04 04:18:24;;;;;;;;;;;9.10;99.90;;;;;;5050772;28;19955;-69
2022/05/04 04:23:41;;;;;;;;;;;9.30;99.90;;;;;;5040174;28;19943;-68
2022/05/04 04:26:11;;;;;;;;;;;9.40;99.90;;;;;;5050010;28;19920;-68
2022/05/04 04:28:38;;;;;;;;;;;9.60;99.90;;;;;;5051069;28;20312;-68
2022/05/04 04:31:05;;;;;;;;;;;9.80;99.90;;;;;;5051249;28;19921;-68
2022/05/04 04:33:32;;;;;;;;;;;10.00;99.90;;;;;;5051244;28;19966;-68
2022/05/04 04:35:59;;;;;;;;;;;10.10;99.90;;;;;;5052212;28;19999;-67
2022/05/04 04:38:26;;;;;;;;;;;10.20;99.90;;;;;;5051113;28;19924;-67
2022/05/04 04:40:53;;;;;;;;;;;10.30;99.90;;;;;;5046965;28;20351;-68
2022/05/04 04:43:20;;;;;;;;;;;10.40;99.90;;;;;;5048717;28;20588;-69
2022/05/04 04:45:49;;;;;;;;;;;10.50;99.90;;;;;;5036704;28;19990;-68
2022/05/04 04:48:17;;;;;;;;;;;10.60;99.90;;;;;;5046957;28;19995;-68
2022/05/04 04:50:44;;;;;;;;;;;10.70;99.90;;;;;;5050292;28;20336;-68
2022/05/04 04:53:11;;;;;;;;;;;10.80;99.90;;;;;;5048089;28;19960;-68
2022/05/04 04:55:40;;;;;;;;;;;10.90;99.90;;;;;;5041788;28;20454;-67
2022/05/04 04:58:06;;;;;;;;;;;11.10;99.90;;;;;;5042854;28;20044;-67
2022/05/04 05:00:34;;;;;;;;;;;11.30;99.90;;;;;;5047822;28;19920;-68
2022/05/04 05:03:01;;;;;;;;;;;11.40;99.90;;;;;;5047632;28;20019;-68
2022/05/04 05:05:28;;;;;;;;;;;11.60;99.90;;;;;;5055296;28;20332;-67
2022/05/04 05:07:55;;;;;;;;;;;11.80;99.90;;;;;;5045465;28;20035;-68
2022/05/04 05:10:21;;;;;;;;;;;12.00;99.90;;;;;;5044349;28;19924;-67
2022/05/04 05:12:50;;;;;;;;;;;12.30;99.90;;;;;;5047984;28;19920;-67
2022/05/04 05:18:05;;;;;;;;;;;12.50;99.90;;;;;;5045250;28;19931;-64
2022/05/04 05:20:34;;;;;;;;;;;12.60;99.90;;;;;;5043291;28;19924;-64
2022/05/04 05:23:01;;;;;;;;;;;12.70;99.90;;;;;;5044683;28;19951;-65
2022/05/04 05:25:29;;;;;;;;;;;12.70;99.90;;;;;;5046896;28;19927;-64
2022/05/04 05:27:56;;;;;;;;;;;12.70;99.90;;;;;;5045291;28;20279;-65
2022/05/04 05:30:23;;;;;;;;;;;12.80;99.90;;;;;;5044322;28;19938;-65
2022/05/04 05:32:49;;;;;;;;;;;12.90;99.90;;;;;;5040617;28;19956;-65
2022/05/04 05:35:16;;;;;;;;;;;12.90;99.90;;;;;;5045163;28;19927;-63
2022/05/04 05:37:43;;;;;;;;;;;13.00;99.90;;;;;;5056345;28;19935;-63
2022/05/04 05:40:16;;;;;;;;;;;13.10;99.90;;;;;;5045283;28;19920;-63
2022/05/04 05:42:43;;;;;;;;;;;13.20;99.90;;;;;;5041363;28;20019;-63
2022/05/04 05:45:10;;;;;;;;;;;13.20;99.90;;;;;;5039578;28;19931;-63
2022/05/04 05:47:40;;;;;;;;;;;13.20;99.90;;;;;;5032702;28;19975;-64
2022/05/04 05:50:07;;;;;;;;;;;13.30;99.90;;;;;;5041016;28;19925;-65
2022/05/04 05:52:34;;;;;;;;;;;13.40;99.90;;;;;;5044443;28;19924;-65
2022/05/04 05:55:01;;;;;;;;;;;13.50;99.90;;;;;;5046427;28;19925;-64
2022/05/04 05:57:28;;;;;;;;;;;13.60;99.90;;;;;;5045114;28;20015;-64
2022/05/04 06:00:00;;;;;;;;;;;13.70;99.90;;;;;;5047898;28;20431;-65
2022/05/04 06:02:31;;;;;;;;;;;13.80;99.90;;;;;;5042410;28;20411;-64
2022/05/04 06:04:57;;;;;;;;;;;14.00;99.90;;;;;;5045561;28;19929;-64
2022/05/04 06:07:24;;;;;;;;;;;14.10;99.90;;;;;;5038686;28;19920;-64
2022/05/04 06:09:52;;;;;;;;;;;14.10;99.90;;;;;;5044011;28;19971;-64
2022/05/04 06:12:19;;;;;;;;;;;14.20;99.90;;;;;;5043699;28;19920;-65
2022/05/04 06:14:46;;;;;;;;;;;14.30;99.90;;;;;;5046306;28;19924;-64
2022/05/04 06:17:13;;;;;;;;;;;14.30;99.90;;;;;;5073712;28;19929;-64
2022/05/04 06:19:40;;;;;;;;;;;14.50;99.90;;;;;;5040125;28;19920;-64
2022/05/04 06:22:06;;;;;;;;;;;14.50;99.90;;;;;;5041874;28;19929;-63
2022/05/04 06:24:34;;;;;;;;;;;14.80;99.90;;;;;;5046133;28;19931;-63
2022/05/04 06:27:01;;;;;;;;;;;15.10;99.90;;;;;;5045189;28;19931;-63
2022/05/04 06:34:06;;;;;;;;;;;15.20;99.90;;;;;;5042659;28;19927;-64
2022/05/04 06:35:08;;;;;;;;;;;15.70;99.90;;;;;;5044403;28;19920;-63
2022/05/04 06:37:36;;;;;;;;;;;16.20;99.90;;;;;;5037768;28;19924;-63
2022/05/04 06:40:03;;;;;;;;;;;16.70;99.90;;;;;;5047766;28;19970;-63
2022/05/04 06:42:30;;;;;;;;;;;17.50;99.90;;;;;;5052137;28;20540;-64
2022/05/04 06:45:01;;;;;;;;;;;18.90;99.90;;;;;;5051060;28;20299;-64
2022/05/04 06:47:28;;;;;;;;;;;;;;;;;;5047169;28;19930;-62
2022/05/04 06:49:55;;;;;;;;;;;;;;;;;;5049054;28;19925;-63
2022/05/04 06:52:25;;;;;;;;;;;;;;;;;;5052441;28;19927;-62
2022/05/04 06:54:52;;;;;;;;;;;22.30;99.90;;;;;;5050998;28;19966;-65
2022/05/04 06:57:19;;;;;;;;;;;22.10;99.90;;;;;;5047600;28;20008;-63
2022/05/04 06:59:46;;;;;;;;;;;22.10;99.90;;;;;;5050314;28;19955;-63
2022/05/04 07:02:14;;;;;;;;;;;22.10;99.90;;;;;;5052935;28;20362;-63
2022/05/04 07:04:41;;;;;;;;;;;22.10;99.90;;;;;;5052006;28;19921;-62
2022/05/04 07:07:11;;;;;;;;;;;22.30;99.90;;;;;;5052372;28;19924;-62
2022/05/04 07:09:38;;;;;;;;;;;22.60;99.90;;;;;;5046806;28;19956;-63
2022/05/04 07:12:04;;;;;;;;;;;22.10;99.90;;;;;;5049437;28;19921;-63
2022/05/04 07:14:31;;;;;;;;;;;21.30;99.90;;;;;;5049024;28;20019;-62
2022/05/04 07:16:58;;;;;;;;;;;20.90;99.90;;;;;;5051895;28;20024;-62
2022/05/04 07:19:25;;;;;;;;;;;20.90;99.90;;;;;;5051452;28;19928;-62
2022/05/04 07:21:52;;;;;;;;;;;21.30;99.90;;;;;;5049217;28;19929;-62
2022/05/04 07:24:18;;;;;;;;;;;21.90;99.90;;;;;;5051514;28;19970;-62
2022/05/04 07:26:45;;;;;;;;;;;23.00;99.90;;;;;;5048217;28;20443;-64
2022/05/04 07:29:12;;;;;;;;;;;23.40;99.90;;;;;;5052529;28;19931;-63
2022/05/04 07:31:43;;;;;;;;;;;24.00;99.90;;;;;;5051044;28;20020;-62
2022/05/04 07:34:17;;;;;;;;;;;24.30;99.90;;;;;;5051464;28;20006;-63
2022/05/04 07:36:45;;;;;;;;;;;23.40;99.90;;;;;;5049713;28;19927;-64
2022/05/04 07:44:49;;;;;;;;;;;22.90;99.90;;;;;;5051128;28;20005;-62
2022/05/04 07:47:21;;;;;;;;;;;23.40;99.90;;;;;;5041283;28;20410;-62
2022/05/04 07:49:48;;;;;;;;;;;23.70;99.90;;;;;;5046809;28;19921;-63
2022/05/04 07:52:15;;;;;;;;;;;23.80;99.90;;;;;;5048116;28;19924;-63
2022/05/04 07:54:42;;;;;;;;;;;24.00;99.90;;;;;;5046520;28;20619;-63
2022/05/04 07:57:09;;;;;;;;;;;24.10;99.40;;;;;;5044169;28;19929;-64
2022/05/04 07:59:35;;;;;;;;;;;24.80;99.00;;;;;;5050635;28;19958;-64
2022/05/04 08:04:49;;;;;;;;;;;25.50;97.10;;;;;;5046858;28;19928;-64
2022/05/04 08:07:17;;;;;;;;;;;25.20;97.60;;;;;;5043830;28;19974;-64
2022/05/04 08:09:44;;;;;;;;;;;25.00;98.50;;;;;;5046630;28;19920;-63
2022/05/04 08:12:13;;;;;;;;;;;24.10;97.80;;;;;;5049567;28;19925;-64
2022/05/04 08:14:40;;;;;;;;;;;23.50;97.80;;;;;;5049796;28;20032;-64
2022/05/04 08:17:07;;;;;;;;;;;23.40;98.60;;;;;;5049153;28;19970;-69
2022/05/04 08:19:36;;;;;;;;;;;24.00;99.50;;;;;;5046613;28;19925;-72
2022/05/04 08:22:03;;;;;;;;;;;23.80;97.90;;;;;;5049490;28;19960;-65
2022/05/04 08:24:30;;;;;;;;;;;23.30;99.20;;;;;;5048989;28;19928;-68
2022/05/04 08:26:57;;;;;;;;;;;23.40;98.30;;;;;;5046413;28;19927;-67
2022/05/04 08:29:24;;;;;;;;;;;23.30;98.30;;;;;;5048282;28;19920;-68
2022/05/04 08:31:51;;;;;;;;;;;23.50;98.70;;;;;;5047580;28;20004;-67
2022/05/04 08:34:17;;;;;;;;;;;24.50;98.40;;;;;;5047687;28;19940;-66
2022/05/04 08:36:44;;;;;;;;;;;24.60;97.90;;;;;;5047361;28;19928;-67
2022/05/04 08:39:11;;;;;;;;;;;24.70;97.20;;;;;;5046858;28;19952;-67
2022/05/04 08:41:41;;;;;;;;;;;24.90;97.40;;;;;;5049223;28;20015;-66
2022/05/04 08:44:11;;;;;;;;;;;25.40;97.00;;;;;;5047214;28;20016;-67
2022/05/04 08:46:39;;;;;;;;;;;26.30;96.30;;;;;;5041724;28;20275;-67
2022/05/04 08:49:12;;;;;;;;;;;26.40;96.40;;;;;;5044982;28;19955;-68
2022/05/04 08:51:40;;;;;;;;;;;26.40;96.90;;;;;;5048214;28;19995;-69
2022/05/04 08:54:08;;;;;;;;;;;27.20;96.50;;;;;;5049043;28;19928;-69
2022/05/04 08:56:35;;;;;;;;;;;26.30;96.30;;;;;;5048582;28;19927;-69
2022/05/04 08:59:04;;;;;;;;;;;26.60;96.00;;;;;;5046778;28;19927;-69
2022/05/04 09:01:32;;;;;;;;;;;26.90;95.70;;;;;;5048530;28;19960;-69
2022/05/04 09:03:59;;;;;;;;;;;26.40;96.00;;;;;;5048873;28;19983;-69
2022/05/04 09:06:30;;;;;;;;;;;26.70;95.80;;;;;;5047760;28;19924;-69
2022/05/04 09:09:03;;;;;;;;;;;27.30;96.20;;;;;;5046696;28;19963;-69
2022/05/04 09:11:32;;;;;;;;;;;28.10;94.90;;;;;;5045611;28;19943;-69
2022/05/04 09:13:59;;;;;;;;;;;27.90;94.70;;;;;;5040873;28;20450;-70
2022/05/04 09:16:32;;;;;;;;;;;28.20;94.00;;;;;;5046561;28;20342;-65
2022/05/04 09:19:01;;;;;;;;;;;27.90;94.30;;;;;;5040985;28;19921;-66
2022/05/04 09:21:27;;;;;;;;;;;27.30;94.20;;;;;;5041562;28;19925;-67
2022/05/04 09:23:54;;;;;;;;;;;26.00;95.10;;;;;;5047863;28;19920;-66
2022/05/04 09:26:22;;;;;;;;;;;24.50;95.80;;;;;;5048089;28;19921;-67
2022/05/04 09:28:57;;;;;;;;;;;23.90;96.50;;;;;;5049776;28;19928;-66
2022/05/04 09:31:25;;;;;;;;;;;23.30;96.30;;;;;;5050543;28;20058;-66
2022/05/04 09:33:52;;;;;;;;;;;23.30;96.80;;;;;;5049448;28;19921;-66
2022/05/04 09:36:32;;;;;;;;;;;23.50;96.80;;;;;;5050149;28;20406;-66
2022/05/04 09:47:19;;;;;;;;;;;25.10;96.40;;;;;;5040664;28;20020;-67
2022/05/04 09:50:00;;;;;;;;;;;24.90;96.50;;;;;;5078627;28;20610;-66
2022/05/04 09:52:27;;;;;;;;;;;25.30;96.60;;;;;;5046516;28;20395;-66
2022/05/04 09:54:53;;;;;;;;;;;25.10;96.10;;;;;;5048286;28;20279;-66
2022/05/04 09:57:20;;;;;;;;;;;25.50;95.90;;;;;;5047608;28;19921;-66
2022/05/04 09:59:48;;;;;;;;;;;25.30;96.00;;;;;;5050172;28;19931;-66
2022/05/04 10:02:16;;;;;;;;;;;25.00;96.10;;;;;;5048878;28;19924;-66
2022/05/04 10:04:43;;;;;;;;;;;24.90;96.40;;;;;;5048784;28;19967;-65
2022/05/04 10:07:12;;;;;;;;;;;25.50;96.20;;;;;;5046123;28;19921;-66
2022/05/04 10:09:42;;;;;;;;;;;26.10;95.50;;;;;;5066807;28;20493;-67
2022/05/04 10:12:08;;;;;;;;;;;26.30;95.20;;;;;;5044341;28;20356;-66
2022/05/04 10:14:35;;;;;;;;;;;26.30;95.60;;;;;;5049041;28;20663;-67
2022/05/04 10:17:19;;;;;;;;;;;27.10;94.80;;;;;;5051093;28;19939;-66
2022/05/04 10:20:05;;;;;;;;;;;27.00;94.80;;;;;;5047932;28;19921;-67
2022/05/04 10:22:40;;;;;;;;;;;26.90;95.40;;;;;;5048617;28;19978;-66
2022/05/04 10:25:07;;;;;;;;;;;26.60;95.40;;;;;;5048976;28;20385;-67
2022/05/04 10:27:39;;;;;;;;;;;27.10;96.00;;;;;;5047394;28;19927;-67
2022/05/04 10:32:58;;;;;;;;;;;27.80;94.70;;;;;;5050860;28;19921;-66
2022/05/04 10:35:43;;;;;;;;;;;27.80;94.50;;;;;;5050434;28;20022;-67
2022/05/04 10:38:13;;;;;;;;;;;27.70;94.70;;;;;;5048052;28;19927;-67
2022/05/04 10:40:47;;;;;;;;;;;27.80;94.40;;;;;;5050332;28;19928;-66
2022/05/04 10:43:17;;;;;;;;;;;27.70;94.10;;;;;;5049075;28;19928;-67
2022/05/04 10:45:45;;;;;;;;;;;27.20;94.50;;;;;;5050782;28;20271;-66
2022/05/04 10:48:18;;;;;;;;;;;26.60;94.50;;;;;;5049347;28;20012;-66
2022/05/04 10:50:48;;;;;;;;;;;26.60;94.90;;;;;;5049413;28;19931;-66
2022/05/04 10:53:23;;;;;;;;;;;26.90;94.60;;;;;;5048983;28;19943;-67
2022/05/04 10:56:00;;;;;;;;;;;26.60;94.50;;;;;;5053107;28;19920;-64
2022/05/04 10:58:35;;;;;;;;;;;25.50;95.10;;;;;;5048990;28;20011;-66
2022/05/04 11:01:13;;;;;;;;;;;24.80;95.40;;;;;;5052981;28;20463;-66
2022/05/04 11:03:56;;;;;;;;;;;24.40;96.10;;;;;;5052927;28;20011;-66
2022/05/04 11:06:30;;;;;;;;;;;24.40;96.40;;;;;;5047810;28;20448;-67
2022/05/04 11:09:02;;;;;;;;;;;24.00;96.90;;;;;;5044622;28;19921;-67
2022/05/04 11:11:30;;;;;;;;;;;24.80;97.00;;;;;;5050698;28;19931;-66
2022/05/04 11:13:57;;;;;;;;;;;25.90;96.30;;;;;;5049006;28;19928;-66
2022/05/04 11:16:28;;;;;;;;;;;26.60;95.80;;;;;;5047238;28;20548;-66
2022/05/04 11:18:55;;;;;;;;;;;27.30;95.30;;;;;;5050908;28;20292;-67
2022/05/04 11:21:22;;;;;;;;;;;28.20;94.70;;;;;;5049768;28;20011;-66
2022/05/04 11:23:50;;;;;;;;;;;28.70;94.10;;;;;;5049763;28;20003;-66
2022/05/04 11:26:18;;;;;;;;;;;28.60;93.30;;;;;;5050537;28;19921;-65
2022/05/04 11:28:45;;;;;;;;;;;28.50;93.60;;;;;;5051959;28;19920;-65
2022/05/04 11:31:12;;;;;;;;;;;27.30;93.40;;;;;;5048605;28;19921;-66
2022/05/04 11:33:42;;;;;;;;;;;26.30;93.70;;;;;;5048186;28;19947;-65
2022/05/04 11:36:10;;;;;;;;;;;25.00;94.80;;;;;;5049972;28;19921;-65
2022/05/04 11:38:36;;;;;;;;;;;24.90;95.30;;;;;;5047717;28;19921;-66
2022/05/04 11:41:03;;;;;;;;;;;25.30;95.20;;;;;;5045465;28;19921;-66
2022/05/04 11:43:34;;;;;;;;;;;25.80;95.50;;;;;;5046097;28;19932;-66
2022/05/04 11:46:06;;;;;;;;;;;26.40;94.20;;;;;;5046774;28;19921;-66
2022/05/04 11:48:35;;;;;;;;;;;26.80;94.50;;;;;;5047080;28;19927;-66
2022/05/04 11:51:02;;;;;;;;;;;26.20;94.40;;;;;;5051565;28;19927;-66
2022/05/04 11:53:29;;;;;;;;;;;26.60;95.10;;;;;;5047342;28;20003;-65
2022/05/04 11:55:58;;;;;;;;;;;26.10;94.30;;;;;;5043611;28;19920;-61
2022/05/04 11:58:27;;;;;;;;;;;26.40;94.00;;;;;;5048318;28;19920;-63
2022/05/04 12:00:54;;;;;;;;;;;26.00;93.50;;;;;;5048751;28;19929;-62
2022/05/04 12:03:29;;;;;;;;;;;26.10;94.10;;;;;;5048609;28;19972;-62
2022/05/04 12:05:55;;;;;;;;;;;26.60;93.60;;;;;;5050081;28;19927;-63
2022/05/04 12:08:22;;;;;;;;;;;26.30;94.00;;;;;;5038582;28;20011;-63
2022/05/04 12:10:50;;;;;;;;;;;26.40;93.60;;;;;;5041872;28;19978;-65
2022/05/04 12:13:24;;;;;;;;;;;26.70;93.40;;;;;;5047907;28;19979;-63
2022/05/04 12:15:52;;;;;;;;;;;27.40;93.20;;;;;;5050394;28;19927;-65
2022/05/04 12:18:18;;;;;;;;;;;27.40;93.20;;;;;;5049429;28;19947;-62
2022/05/04 12:20:48;;;;;;;;;;;27.00;92.10;;;;;;5047220;28;19940;-63
2022/05/04 12:23:15;;;;;;;;;;;26.10;92.50;;;;;;5050507;28;19921;-65
2022/05/04 12:25:42;;;;;;;;;;;25.80;92.60;;;;;;5049006;28;20957;-67
2022/05/04 12:28:10;;;;;;;;;;;25.60;93.00;;;;;;5049703;28;19924;-66
2022/05/04 12:33:34;;;;;;;;;;;25.70;93.20;;;;;;5049841;28;19921;-66
2022/05/04 12:36:06;;;;;;;;;;;25.40;93.80;;;;;;5031780;28;19921;-65
2022/05/04 12:38:34;;;;;;;;;;;24.90;94.20;;;;;;5048026;28;20284;-64
2022/05/04 12:41:02;;;;;;;;;;;24.60;94.90;;;;;;5042238;28;19978;-65
2022/05/04 12:43:36;;;;;;;;;;;24.50;94.80;;;;;;5048994;28;20376;-65
2022/05/04 12:46:09;;;;;;;;;;;24.20;94.80;;;;;;5047280;28;19947;-66
2022/05/04 12:48:38;;;;;;;;;;;24.30;94.40;;;;;;5047851;28;19967;-66
2022/05/04 12:51:06;;;;;;;;;;;24.80;94.30;;;;;;5048029;28;19925;-66
2022/05/04 12:53:33;;;;;;;;;;;25.70;93.90;;;;;;5049683;28;19928;-65
2022/05/04 12:58:55;;;;;;;;;;;26.20;92.30;;;;;;5049941;28;20011;-65
2022/05/04 13:01:25;;;;;;;;;;;25.30;92.60;;;;;;5051360;28;19921;-65
2022/05/04 13:03:52;;;;;;;;;;;25.20;93.40;;;;;;5047586;28;20379;-66
2022/05/04 13:06:22;;;;;;;;;;;25.30;93.30;;;;;;5041347;28;19971;-65
2022/05/04 13:08:52;;;;;;;;;;;25.80;93.50;;;;;;5052517;28;19924;-65
2022/05/04 13:11:22;;;;;;;;;;;26.20;93.20;;;;;;5054157;28;19928;-65
2022/05/04 13:13:48;;;;;;;;;;;26.90;92.50;;;;;;5048205;28;19931;-63
2022/05/04 13:16:15;;;;;;;;;;;27.20;92.30;;;;;;5050557;28;19927;-66
2022/05/04 13:18:42;;;;;;;;;;;27.20;92.40;;;;;;5049863;28;19925;-66
2022/05/04 13:21:10;;;;;;;;;;;27.20;92.80;;;;;;5051217;28;20003;-65
2022/05/04 13:23:36;;;;;;;;;;;27.40;92.50;;;;;;5050627;28;19921;-65
2022/05/04 13:26:03;;;;;;;;;;;27.30;92.50;;;;;;5050898;28;19920;-65
2022/05/04 13:28:31;;;;;;;;;;;27.40;92.50;;;;;;5047236;28;19921;-65
2022/05/04 13:31:01;;;;;;;;;;;27.90;92.40;;;;;;5050714;28;19935;-65
2022/05/04 13:33:28;;;;;;;;;;;27.70;92.20;;;;;;5048838;28;19921;-64
2022/05/04 13:35:55;;;;;;;;;;;26.90;92.50;;;;;;5048093;28;19935;-65
2022/05/04 13:38:22;;;;;;;;;;;26.00;93.30;;;;;;5047614;28;19950;-66
2022/05/04 13:40:51;;;;;;;;;;;25.50;93.40;;;;;;5050368;28;20004;-66
2022/05/04 13:43:19;;;;;;;;;;;25.00;93.90;;;;;;5048366;28;20306;-67
2022/05/04 13:45:47;;;;;;;;;;;25.00;94.10;;;;;;5050941;28;19931;-64
2022/05/04 13:48:17;;;;;;;;;;;24.90;94.30;;;;;;5050558;28;19932;-66
2022/05/04 13:53:29;;;;;;;;;;;25.80;94.30;;;;;;5054189;28;20016;-65
2022/05/04 13:55:56;;;;;;;;;;;25.90;93.60;;;;;;5052084;28;19924;-65
2022/05/04 13:58:24;;;;;;;;;;;25.80;93.60;;;;;;5051328;28;19933;-66
2022/05/04 14:00:55;;;;;;;;;;;25.70;93.60;;;;;;5048928;28;19924;-65
2022/05/04 14:03:22;;;;;;;;;;;25.40;93.10;;;;;;5053422;28;19932;-65
2022/05/04 14:05:55;;;;;;;;;;;25.20;93.00;;;;;;5052918;28;19928;-66
2022/05/04 14:08:22;;;;;;;;;;;25.20;92.90;;;;;;5053732;28;19931;-66
2022/05/04 14:10:50;;;;;;;;;;;25.10;93.00;;;;;;5053987;28;19929;-67
2022/05/04 14:13:24;;;;;;;;;;;25.20;92.10;;;;;;5053907;28;19931;-65
2022/05/04 14:15:54;;;;;;;;;;;25.50;91.30;;;;;;5050870;28;19925;-65
2022/05/04 14:18:21;;;;;;;;;;;25.10;91.40;;;;;;5052873;28;20051;-64
2022/05/04 14:20:51;;;;;;;;;;;24.60;92.10;;;;;;5053737;28;19925;-66
2022/05/04 14:23:19;;;;;;;;;;;24.10;92.40;;;;;;5053284;28;19932;-66
2022/05/04 14:25:48;;;;;;;;;;;23.80;92.90;;;;;;5051931;28;19951;-66
2022/05/04 14:28:19;;;;;;;;;;;23.50;93.40;;;;;;5051236;28;19928;-66
2022/05/04 14:30:46;;;;;;;;;;;23.70;93.80;;;;;;5053237;28;19935;-66
2022/05/04 14:33:13;;;;;;;;;;;24.00;94.80;;;;;;5053929;28;19931;-65
2022/05/04 14:35:42;;;;;;;;;;;24.00;94.80;;;;;;5052957;28;20327;-65
2022/05/04 14:38:15;;;;;;;;;;;23.70;95.20;;;;;;5052067;28;19947;-66
2022/05/04 14:40:43;;;;;;;;;;;23.50;95.70;;;;;;5051244;28;19925;-66
2022/05/04 14:43:10;;;;;;;;;;;23.20;96.30;;;;;;5051600;28;20011;-65
2022/05/04 14:45:36;;;;;;;;;;;22.90;96.20;;;;;;5048736;28;19925;-66
2022/05/04 14:48:04;;;;;;;;;;;22.50;96.50;;;;;;5050700;28;20020;-66
2022/05/04 14:50:31;;;;;;;;;;;22.20;96.80;;;;;;5046864;28;19943;-66
2022/05/04 14:52:58;;;;;;;;;;;21.90;97.10;;;;;;5051776;28;19928;-65
2022/05/04 14:55:25;;;;;;;;;;;21.60;97.50;;;;;;5081155;28;19952;-65
2022/05/04 14:57:54;;;;;;;;;;;21.20;97.50;;;;;;5048293;28;20362;-67
2022/05/04 15:00:20;;;;;;;;;;;20.70;99.20;;;;;;5051101;28;20443;-66
2022/05/04 15:05:32;;;;;;;;;;;18.70;99.90;;;;;;5046947;28;19929;-64
2022/05/04 15:08:00;;;;;;;;;;;17.10;99.90;;;;;;5040977;28;19929;-64
2022/05/04 15:10:26;;;;;;;;;;;15.80;99.90;;;;;;5051056;28;20011;-65
2022/05/04 15:12:53;;;;;;;;;;;14.70;99.90;;;;;;5052144;28;19925;-65